Decoded Metar for PARY (RUBY in AK, USA) (IATA:RBY) | Meteo·Mobile Aviation Weather
aviador You're here:

PARY Decoded Metar

RUBY in AK, USA
Report Time2018-08-19 04:56:00
UTC Time2018-08-19 05:27:32
Flight Rules vfr VFR
Wind240° at 05 kt
W.Decomp.*RWY 21: 4.9 kt HW 0.9 kt RCW
W.Rank240° ranks 9
Current wind is below 240° avg. (6.4)
Visibility9999 m
Phenomena:N/A
Clouds:N/A
Expected CloudBase > 4,000 ft AGL from Temp-Dew spread
CeilingNone
Temp17°C (ISA +3)
Dew Point07°C (52% RH)
AAT14.5°C
QNH1021 hPa
Density Alt909 ft
Elevation653 ft
Report Wrong Elevation
Raw Report
PARY 190456Z AUTO 24005KT 10SM CLR 17/07 A3015=

Extra information for PARY:More info

Metar Taf Metar & Taf Last 4 Metars F.Rules Stats Wind Profile Meteogram Temp Stats Airport Information Weather charts Add Link Nearby VenuesMetar ALERT Operation Metar Decoded Social comments

AIRNAV info for PARY